createdAt,value
2018-12-29T00:00:32.743Z,90.23
2018-12-29T00:03:52.283Z,90.12
2018-12-29T00:07:47.024Z,90.15
2018-12-29T00:28:19.430Z,89.99
2018-12-29T00:35:01.903Z,90.47
2018-12-29T00:37:59.405Z,90.66
2018-12-29T00:41:10.781Z,90.87
2018-12-29T00:44:13.810Z,90.69
2018-12-29T00:46:44.533Z,90.59
2018-12-29T00:49:14.293Z,90.62
2018-12-29T00:58:53.334Z,90.58
2018-12-29T01:01:33.812Z,90.55
2018-12-29T01:04:57.373Z,90.62
2018-12-29T01:10:26.440Z,90.87
2018-12-29T01:12:53.950Z,91.03
2018-12-29T01:15:21.378Z,90.77
2018-12-29T01:17:48.875Z,90.81
2018-12-29T01:20:16.324Z,90.59
2018-12-29T01:22:43.810Z,90.65
2018-12-29T01:25:11.236Z,90.35
2018-12-29T01:27:38.733Z,90.45
2018-12-29T01:30:06.655Z,90.36
2018-12-29T01:32:34.205Z,90.34
2018-12-29T01:35:01.656Z,90.21
2018-12-29T01:37:29.153Z,90.10
2018-12-29T01:39:56.585Z,90.19
2018-12-29T01:42:24.141Z,90.20
2018-12-29T01:44:51.553Z,89.99
2018-12-29T01:47:19.112Z,90.11
2018-12-29T01:49:46.615Z,90.18
2018-12-29T01:52:14.110Z,90.17
2018-12-29T01:54:41.585Z,90.41
2018-12-29T01:57:09.090Z,90.63
2018-12-29T01:59:36.505Z,90.55
2018-12-29T02:02:04.152Z,90.60
2018-12-29T02:04:31.686Z,90.71
2018-12-29T02:06:59.586Z,90.82
2018-12-29T02:09:27.046Z,90.92
2018-12-29T02:11:54.460Z,90.80
2018-12-29T02:14:21.950Z,90.91
2018-12-29T02:16:49.376Z,90.52
2018-12-29T02:19:16.851Z,90.60
2018-12-29T02:21:44.336Z,90.68
2018-12-29T02:24:11.811Z,90.78
2018-12-29T02:26:39.301Z,90.73
2018-12-29T02:29:06.775Z,90.73
2018-12-29T02:31:34.261Z,90.86
2018-12-29T02:34:01.770Z,90.77
2018-12-29T02:36:29.186Z,90.91
2018-12-29T02:38:56.650Z,91.03
2018-12-29T02:41:24.055Z,91.02
2018-12-29T02:43:51.530Z,91.16
2018-12-29T02:46:19.010Z,91.16
2018-12-29T02:48:46.495Z,91.03
2018-12-29T02:51:13.923Z,90.96
2018-12-29T02:53:41.400Z,91.00
2018-12-29T02:56:08.819Z,91.00
2018-12-29T02:58:36.351Z,91.25
2018-12-29T03:01:03.750Z,91.11
2018-12-29T03:03:31.315Z,91.20
2018-12-29T03:05:58.909Z,91.16
2018-12-29T03:08:26.505Z,91.23
2018-12-29T03:10:53.930Z,91.20
2018-12-29T03:13:23.212Z,91.02
2018-12-29T03:15:50.687Z,91.04
2018-12-29T03:18:18.182Z,90.86
2018-12-29T03:20:45.751Z,90.89
2018-12-29T03:23:13.295Z,91.02
2018-12-29T03:25:40.687Z,91.05
2018-12-29T03:28:08.291Z,91.30
2018-12-29T03:30:35.733Z,91.38
2018-12-29T03:33:04.128Z,91.51
2018-12-29T03:35:31.595Z,91.73
2018-12-29T03:37:59.039Z,91.99
2018-12-29T03:40:26.774Z,92.16
2018-12-29T03:42:54.206Z,92.13
2018-12-29T03:45:21.829Z,92.17
2018-12-29T03:47:49.410Z,92.22
2018-12-29T03:50:16.876Z,92.31
2018-12-29T03:52:44.418Z,92.20
2018-12-29T03:55:12.360Z,92.31
2018-12-29T03:57:39.931Z,92.44
2018-12-29T04:00:07.447Z,92.35
2018-12-29T04:02:34.847Z,92.43
2018-12-29T04:05:02.317Z,92.57
2018-12-29T04:07:29.820Z,92.35
2018-12-29T04:09:57.360Z,92.09
2018-12-29T04:12:26.699Z,91.87
2018-12-29T04:14:54.276Z,91.95
2018-12-29T04:17:21.681Z,92.10
2018-12-29T04:19:49.339Z,92.21
2018-12-29T04:22:16.747Z,92.29
2018-12-29T04:24:44.227Z,92.33
2018-12-29T04:27:11.674Z,92.18
2018-12-29T04:29:39.165Z,92.11
2018-12-29T04:32:06.610Z,92.16
2018-12-29T04:34:34.165Z,92.31
2018-12-29T04:37:01.637Z,92.12
2018-12-29T04:39:29.149Z,92.28
2018-12-29T04:41:56.609Z,92.08
2018-12-29T04:44:24.250Z,92.04
2018-12-29T04:46:51.780Z,92.08
2018-12-29T04:49:19.274Z,91.92
2018-12-29T04:51:46.739Z,91.86
2018-12-29T04:54:14.385Z,91.66
2018-12-29T04:56:41.915Z,91.77
2018-12-29T04:59:09.398Z,91.80
2018-12-29T05:01:36.825Z,91.85
2018-12-29T05:04:04.398Z,91.86
2018-12-29T05:06:31.910Z,91.84
2018-12-29T05:08:59.435Z,91.72
2018-12-29T05:11:26.905Z,91.62
2018-12-29T05:13:55.515Z,91.60
2018-12-29T05:16:23.050Z,91.70
2018-12-29T05:18:50.470Z,91.76
2018-12-29T05:21:17.936Z,91.82
2018-12-29T05:23:45.395Z,91.67
2018-12-29T05:26:12.859Z,91.61
2018-12-29T05:28:40.350Z,91.54
2018-12-29T05:31:07.802Z,91.78
2018-12-29T05:33:35.280Z,92.02
2018-12-29T05:36:02.710Z,92.18
2018-12-29T05:38:30.119Z,92.25
2018-12-29T05:40:57.740Z,92.51
2018-12-29T05:43:25.145Z,92.73
2018-12-29T05:45:52.683Z,92.65
2018-12-29T05:48:20.126Z,92.53
2018-12-29T05:50:47.685Z,92.63
2018-12-29T05:53:15.609Z,92.89
2018-12-29T05:55:43.264Z,92.88
2018-12-29T05:58:10.790Z,92.93
2018-12-29T06:00:38.392Z,92.58
2018-12-29T06:03:05.856Z,92.57
2018-12-29T06:05:33.316Z,92.45
2018-12-29T06:08:00.934Z,92.50
2018-12-29T06:10:28.431Z,92.72
2018-12-29T06:12:56.050Z,92.56
2018-12-29T06:15:23.613Z,92.33
2018-12-29T06:17:51.050Z,92.59
2018-12-29T06:20:18.595Z,92.59
2018-12-29T06:22:46.000Z,92.37
2018-12-29T06:25:13.519Z,92.45
2018-12-29T06:27:42.990Z,92.38
2018-12-29T06:30:10.435Z,92.14
2018-12-29T06:32:37.950Z,92.25
2018-12-29T06:35:05.490Z,92.48
2018-12-29T06:37:41.055Z,92.70
2018-12-29T06:40:08.460Z,92.79
2018-12-29T06:42:36.100Z,92.89
2018-12-29T06:45:03.675Z,92.93
2018-12-29T06:47:31.204Z,92.20
2018-12-29T06:49:58.651Z,92.19
2018-12-29T06:52:26.110Z,92.10
2018-12-29T06:54:53.557Z,92.14
2018-12-29T06:57:21.033Z,92.18
2018-12-29T06:59:48.620Z,92.29
2018-12-29T07:02:16.365Z,92.46
2018-12-29T07:04:43.825Z,92.57
2018-12-29T07:07:11.336Z,92.60
2018-12-29T07:09:38.750Z,92.60
2018-12-29T07:12:06.275Z,92.67
2018-12-29T07:14:33.715Z,92.94
2018-12-29T07:17:01.252Z,93.06
2018-12-29T07:19:28.680Z,93.14
2018-12-29T07:21:56.140Z,93.14
2018-12-29T07:24:23.580Z,93.20
2018-12-29T07:26:51.050Z,93.33
2018-12-29T07:29:18.475Z,93.25
2018-12-29T07:31:46.047Z,93.38
2018-12-29T07:34:13.492Z,93.42
2018-12-29T07:36:40.930Z,93.59
2018-12-29T07:39:08.411Z,93.73
2018-12-29T07:41:35.825Z,93.64
2018-12-29T07:44:03.329Z,93.60
2018-12-29T07:46:30.865Z,93.67
2018-12-29T07:48:58.382Z,93.92
2018-12-29T07:51:25.850Z,94.08
2018-12-29T07:53:53.296Z,94.02
2018-12-29T07:56:20.831Z,94.11
2018-12-29T07:58:48.405Z,94.23
2018-12-29T08:01:15.829Z,94.36
2018-12-29T08:03:43.363Z,94.43
2018-12-29T08:06:10.790Z,94.18
2018-12-29T08:08:38.300Z,94.07
2018-12-29T08:11:05.709Z,94.17
2018-12-29T08:13:33.194Z,94.32
2018-12-29T08:16:00.599Z,94.17
2018-12-29T08:18:28.059Z,94.04
2018-12-29T08:20:55.499Z,93.96
2018-12-29T08:23:22.959Z,93.86
2018-12-29T08:25:50.357Z,94.14
2018-12-29T08:28:18.310Z,94.23
2018-12-29T08:30:46.053Z,94.34
2018-12-29T08:33:13.544Z,94.52
2018-12-29T08:35:41.037Z,94.25
2018-12-29T08:38:08.490Z,93.95
2018-12-29T08:40:36.042Z,93.54
2018-12-29T08:43:03.689Z,93.75
2018-12-29T08:45:31.190Z,94.05
2018-12-29T08:47:58.692Z,94.06
2018-12-29T08:50:26.119Z,94.36
2018-12-29T08:52:53.619Z,94.45
2018-12-29T08:55:21.054Z,94.44
2018-12-29T08:57:48.530Z,94.28
2018-12-29T09:00:16.013Z,94.23
2018-12-29T09:02:43.504Z,93.78
2018-12-29T09:05:11.303Z,93.78
2018-12-29T09:07:38.765Z,94.00
2018-12-29T09:10:06.185Z,94.01
2018-12-29T09:12:33.709Z,93.79
2018-12-29T09:15:01.119Z,93.70
2018-12-29T09:17:28.730Z,93.78
2018-12-29T09:19:56.179Z,93.91
2018-12-29T09:22:23.655Z,93.99
2018-12-29T09:24:51.165Z,94.13
2018-12-29T09:27:18.684Z,93.88
2018-12-29T09:29:46.235Z,93.91
2018-12-29T09:32:13.679Z,93.85
2018-12-29T09:34:41.100Z,93.79
2018-12-29T09:37:08.625Z,93.98
2018-12-29T09:39:36.520Z,94.03
2018-12-29T09:42:04.184Z,93.93
2018-12-29T09:44:31.754Z,94.19
2018-12-29T09:46:59.225Z,94.23
2018-12-29T09:49:26.720Z,94.29
2018-12-29T09:51:54.180Z,94.38
2018-12-29T09:54:22.355Z,94.52
2018-12-29T09:56:49.774Z,94.67
2018-12-29T09:59:17.239Z,94.64
2018-12-29T10:01:44.819Z,94.58
2018-12-29T10:04:12.294Z,94.85
2018-12-29T10:06:39.804Z,94.74
2018-12-29T10:09:07.295Z,94.68
2018-12-29T10:11:34.784Z,94.88
2018-12-29T10:14:02.230Z,94.94
2018-12-29T10:16:29.649Z,95.24
2018-12-29T10:18:57.130Z,95.22
2018-12-29T10:21:24.531Z,95.50
2018-12-29T10:23:51.999Z,95.51
2018-12-29T10:26:20.249Z,95.67
2018-12-29T10:28:47.743Z,95.92
2018-12-29T10:41:15.199Z,96.38
2018-12-29T10:43:42.734Z,96.81
2018-12-29T10:46:10.409Z,96.79
2018-12-29T10:48:37.854Z,96.87
2018-12-29T10:51:05.288Z,97.12
2018-12-29T10:53:32.790Z,97.03
2018-12-29T10:56:00.556Z,97.32
2018-12-29T10:58:28.038Z,97.24
2018-12-29T11:00:55.465Z,97.17
2018-12-29T11:03:22.915Z,97.04
2018-12-29T11:05:50.733Z,96.86
2018-12-29T11:08:18.207Z,96.44
2018-12-29T11:10:45.759Z,96.02
2018-12-29T11:13:13.232Z,95.75
2018-12-29T11:19:55.234Z,95.47
2018-12-29T12:48:14.477Z,90.30
2018-12-29T12:50:42.018Z,90.40
2018-12-29T12:53:09.508Z,90.42
2018-12-29T12:55:37.372Z,90.44
2018-12-29T12:58:05.201Z,90.28
2018-12-29T13:00:33.149Z,90.15
2018-12-29T13:03:00.881Z,90.17
2018-12-29T13:05:28.414Z,90.09
2018-12-29T13:07:55.872Z,89.83
2018-12-29T13:10:23.349Z,89.81
2018-12-29T13:12:53.387Z,89.46
2018-12-29T13:15:21.839Z,89.69
2018-12-29T13:17:49.273Z,89.43
2018-12-29T13:20:16.839Z,89.15
2018-12-29T13:22:44.348Z,89.23
2018-12-29T13:25:11.854Z,89.30
2018-12-29T13:27:39.298Z,89.03
2018-12-29T13:30:07.001Z,88.79
2018-12-29T13:32:34.394Z,88.76
2018-12-29T13:35:02.210Z,88.64
2018-12-29T13:37:29.694Z,88.89
2018-12-29T13:39:57.163Z,88.89
2018-12-29T13:42:25.079Z,89.09
2018-12-29T13:44:52.538Z,89.16
2018-12-29T13:47:20.073Z,89.09
2018-12-29T13:49:47.508Z,88.88
2018-12-29T13:52:15.107Z,88.91
2018-12-29T13:54:43.183Z,89.02
2018-12-29T13:57:10.753Z,88.90
2018-12-29T13:59:38.224Z,88.99
2018-12-29T14:02:06.049Z,88.81
2018-12-29T14:04:33.479Z,88.62
2018-12-29T14:07:00.983Z,88.59
2018-12-29T14:09:28.478Z,88.71
2018-12-29T14:11:55.989Z,88.68
2018-12-29T14:14:23.861Z,88.78
2018-12-29T14:16:51.364Z,88.58
2018-12-29T14:19:18.793Z,88.64
2018-12-29T14:21:46.253Z,88.45
2018-12-29T14:24:13.733Z,88.67
2018-12-29T14:26:41.227Z,88.45
2018-12-29T14:29:08.646Z,88.44
2018-12-29T14:31:36.179Z,88.08
2018-12-29T14:34:03.622Z,88.14
2018-12-29T14:36:31.148Z,88.50
2018-12-29T14:38:58.594Z,88.29
2018-12-29T14:41:42.066Z,88.14
2018-12-29T14:44:09.553Z,88.04
2018-12-29T14:46:37.059Z,88.81
2018-12-29T14:49:04.479Z,88.10
2018-12-29T14:51:32.147Z,87.85
2018-12-29T14:53:59.693Z,88.09
2018-12-29T14:56:27.179Z,88.06
2018-12-29T14:58:54.654Z,88.13
2018-12-29T15:01:22.173Z,88.40
2018-12-29T15:03:50.024Z,88.58
2018-12-29T15:06:17.453Z,88.78
2018-12-29T15:08:44.979Z,88.72
2018-12-29T15:11:12.453Z,88.70
2018-12-29T15:13:39.994Z,88.62
2018-12-29T15:16:07.431Z,88.64
2018-12-29T15:18:35.029Z,88.96
2018-12-29T15:21:02.893Z,89.39
2018-12-29T15:23:30.439Z,89.93
2018-12-29T15:25:58.339Z,90.00
2018-12-29T15:28:25.957Z,90.37
2018-12-29T15:30:53.489Z,91.18
2018-12-29T15:33:21.011Z,91.60
2018-12-29T15:35:48.863Z,92.18
2018-12-29T15:38:16.447Z,92.64
2018-12-29T15:40:43.899Z,92.90
2018-12-29T15:43:11.520Z,93.29
2018-12-29T15:45:39.743Z,93.44
2018-12-29T15:48:07.655Z,93.70
2018-12-29T15:50:35.528Z,93.92
2018-12-29T15:53:03.788Z,94.08
2018-12-29T15:55:31.263Z,93.99
2018-12-29T15:57:59.145Z,93.98
2018-12-29T16:00:26.763Z,94.22
2018-12-29T16:02:54.388Z,94.28
2018-12-29T16:05:21.848Z,94.31
2018-12-29T16:07:49.766Z,94.02
2018-12-29T16:10:17.223Z,94.03
2018-12-29T16:12:44.734Z,94.19
2018-12-29T16:15:12.626Z,94.27
2018-12-29T16:17:40.339Z,94.40
2018-12-29T16:20:08.093Z,94.28
2018-12-29T16:22:35.653Z,94.39
2018-12-29T16:25:03.319Z,94.73
2018-12-29T16:27:31.315Z,94.86
2018-12-29T16:29:58.853Z,94.98
2018-12-29T16:32:26.563Z,95.00
2018-12-29T16:34:54.128Z,95.03
2018-12-29T16:37:21.684Z,95.08
2018-12-29T16:39:49.373Z,95.10
2018-12-29T16:42:16.773Z,95.13
2018-12-29T16:44:44.563Z,95.21
2018-12-29T16:47:29.494Z,95.29
2018-12-29T16:49:57.038Z,95.30
2018-12-29T16:52:24.858Z,95.09
2018-12-29T16:54:53.339Z,95.26
2018-12-29T16:57:20.803Z,95.11
2018-12-29T16:59:48.368Z,94.73
2018-12-29T17:02:16.013Z,94.75
2018-12-29T17:04:43.523Z,94.92
2018-12-29T17:07:11.014Z,94.93
2018-12-29T17:09:38.518Z,94.86
2018-12-29T17:12:06.032Z,94.71
2018-12-29T17:14:33.644Z,94.48
2018-12-29T17:17:01.234Z,94.73
2018-12-29T17:19:29.159Z,94.88
2018-12-29T17:21:56.709Z,94.81
2018-12-29T17:24:24.264Z,94.74
2018-12-29T17:26:51.723Z,94.70
2018-12-29T17:29:19.184Z,94.51
2018-12-29T17:31:46.654Z,94.61
2018-12-29T17:34:14.159Z,94.55
2018-12-29T17:36:42.288Z,94.60
2018-12-29T17:39:09.904Z,94.66
2018-12-29T17:41:37.594Z,94.70
2018-12-29T17:44:05.270Z,94.66
2018-12-29T17:46:33.274Z,94.74
2018-12-29T17:49:01.063Z,94.89
2018-12-29T17:51:28.660Z,95.07
2018-12-29T17:53:56.194Z,95.10
2018-12-29T17:56:23.978Z,95.00
2018-12-29T17:58:51.479Z,95.01
2018-12-29T18:01:19.055Z,95.01
2018-12-29T18:03:46.904Z,95.08
2018-12-29T18:06:14.719Z,95.17
2018-12-29T18:08:42.544Z,95.13
2018-12-29T18:11:10.312Z,95.06
2018-12-29T18:13:37.839Z,95.09
2018-12-29T18:16:05.345Z,95.14
2018-12-29T18:18:33.177Z,95.17
2018-12-29T18:21:00.874Z,95.13
2018-12-29T18:23:28.794Z,95.21
2018-12-29T18:25:56.434Z,95.24
2018-12-29T18:28:24.394Z,95.41
2018-12-29T18:30:52.199Z,95.41
2018-12-29T18:33:20.081Z,95.47
2018-12-29T18:35:47.969Z,95.47
2018-12-29T18:38:15.773Z,95.31
2018-12-29T18:40:43.493Z,95.39
2018-12-29T18:43:11.239Z,95.40
2018-12-29T18:45:39.288Z,95.40
2018-12-29T18:48:07.103Z,95.22
2018-12-29T18:50:34.754Z,95.15
2018-12-29T18:53:02.673Z,95.22
2018-12-29T18:55:30.619Z,95.13
2018-12-29T18:57:58.461Z,95.06
2018-12-29T19:00:26.803Z,95.21
2018-12-29T19:02:54.625Z,95.28
2018-12-29T19:05:22.418Z,95.27
2018-12-29T19:07:50.193Z,95.35
2018-12-29T19:10:18.038Z,95.32
2018-12-29T19:12:45.826Z,95.30
2018-12-29T19:15:13.853Z,95.23
2018-12-29T19:17:41.817Z,95.20
2018-12-29T19:20:09.977Z,95.22
2018-12-29T19:22:37.897Z,95.24
2018-12-29T19:25:05.737Z,95.30
2018-12-29T19:27:33.437Z,95.37
2018-12-29T19:30:02.755Z,95.39
2018-12-29T19:32:30.803Z,95.43
2018-12-29T19:34:59.115Z,95.39
2018-12-29T19:37:26.855Z,95.31
2018-12-29T19:39:55.076Z,95.31
2018-12-29T20:05:04.466Z,95.29
2018-12-29T20:31:01.293Z,93.71
2018-12-29T20:33:29.427Z,93.74
2018-12-29T20:36:00.502Z,93.82
2018-12-29T20:38:28.647Z,93.25
2018-12-29T20:41:00.957Z,93.02
2018-12-29T20:43:29.139Z,91.53
2018-12-29T20:45:57.218Z,90.93
2018-12-29T20:48:28.767Z,90.11
2018-12-29T20:51:05.285Z,90.12
2018-12-29T20:53:36.566Z,90.07
2018-12-29T20:56:26.787Z,90.17
2018-12-29T20:59:56.532Z,90.95
2018-12-29T21:03:05.879Z,91.72
2018-12-29T21:05:33.982Z,92.10
2018-12-29T21:20:43.932Z,92.02
2018-12-29T23:32:16.315Z,92.70
2018-12-29T23:35:26.326Z,92.89
